Aérodrome :
LOGIN :

S'inscrire | Disclaimer

   EN    FR    IT 

 










Légende :    VFR   VFR Marginal   IFR   IFR Intensif   IFR Très Intensif
Visi : 
Plafond : 
>= 8 km
>= 3000ft
5 à 8 km
1000 à 3000 ft
1500m à 5 km
500 à 1000 ft
800 à 1500m
200 à 500 ft
< 800m
< 200 ft
Symboles :   Orages  Brouillard  Fortes neiges  Fortes précipitations  Vent > 20 kt
SIGMETs :   Divers  Orages  Givrage  Turbulence  Onde Orograph.  Cendres Volcan.







- Altitude de l'aérodrome : 358 ft
- Voir les cartes d'approche


EGTC - Cranfield

DERNIER METAR :
  • 141220Z 23012KT 9999 FEW020 06/02 Q0989 R21/7204//

METARs EXPIRÉS :
  • 141150Z 23011KT 9999 FEW020 05/02 Q0989 R21/7204//
  • 141120Z 22013KT 9999 FEW028 05/03 Q0989 R21/7204//
  • 141050Z 23012KT 9999 FEW030 04/02 Q0990 R21/7210//
  • 141020Z 23012KT 9999 FEW030 04/02 Q0990 R21/7210//

TAF TAF EGTC
Valide du 14 à 12h jusqu'au 14 à 19h UTC


141106Z 1412/1419 24012KT 9999 SCT025
PROB30
TEMPO 1412/1414 7000 SHRA BKN014
TEMPO 1417/1419 BKN014
Pas de NOTAMs connus pour ce terrain.
1 SIGMET publié pour la FIR London (EGTT) :
 
Turbulence forte
EGTT SIGMET 03 VALID 141100/141500 EGRR
EGTT LONDON FIR SEV TURB FCST SW OF LINE N5000 W00019 - N5153 W00620 SFC/FL060 STNR NC=



MET'MAP, la Météo Aéronautique d'un coup d'oeil ! - Copyright ORBIFLY Décembre 2007 - Disclaimer

ORBIFLY MET'MAP TEAM :

Programmation & Développement : Alexandra Zaïnal
Conception & Développement : Baudouin d'Aumeries
Co-Programmation & Développement : Marc-Olivier Méhu
Soutien technique & logistique : Manuel Goepfert

Contact : metmap@orbifly.com




SOURCES & CREDITS :

   NOAA